Time;durP1;ratioP1;P1;durP2;ratioP2;P2;SDS_P1;SDS_P2;PMS_P1;PMS_P2;Temp;Humidity;BMP_temperature;BMP_pressure;BME280_temperature;BME280_humidity;BME280_pressure;Samples;Min_cycle;Max_cycle;Signal;HPM_P1;HPM_P2
2023/08/22 00:01:26;;;;;;;14.45;8.52;;;;;;;20.71;100.00;-18583.88;4990295;28;20039;-79
2023/08/22 00:03:56;;;;;;;12.98;8.98;;;;;;;20.59;100.00;-18580.63;4986964;28;20129;-79
2023/08/22 00:06:21;;;;;;;14.20;9.73;;;;;;;20.72;100.00;-18584.00;4985791;28;20878;-79
2023/08/22 00:08:47;;;;;;;11.63;9.57;;;;;;;20.71;100.00;-18583.75;4985150;28;20118;-79
2023/08/22 00:11:12;;;;;;;12.98;10.07;;;;;;;20.65;100.00;-18582.25;4992679;28;20501;-79
2023/08/22 00:13:37;;;;;;;18.00;10.50;;;;;;;20.63;100.00;-18581.56;4986998;28;20497;-79
2023/08/22 00:16:03;;;;;;;17.05;10.93;;;;;;;20.64;100.00;-18581.84;4987100;28;20666;-79
2023/08/22 00:18:28;;;;;;;14.10;10.25;;;;;;;20.69;100.00;-18583.34;4985435;28;20595;-79
2023/08/22 00:20:54;;;;;;;16.40;10.07;;;;;;;20.66;100.00;-18582.38;4990333;28;20140;-79
2023/08/22 00:23:19;;;;;;;14.75;10.45;;;;;;;20.67;100.00;-18582.66;4987317;28;20125;-79
2023/08/22 00:25:44;;;;;;;13.00;9.93;;;;;;;20.65;100.00;-18582.09;4986443;28;20058;-79
2023/08/22 00:28:10;;;;;;;14.65;9.52;;;;;;;20.61;100.00;-18581.16;4988184;28;20046;-78
2023/08/22 00:30:35;;;;;;;13.02;9.27;;;;;;;20.59;100.00;-18580.47;4985137;28;20057;-78
2023/08/22 00:33:00;;;;;;;10.65;8.60;;;;;;;20.65;100.00;-18582.25;4986548;28;20514;-78
2023/08/22 00:35:28;;;;;;;11.05;8.75;;;;;;;20.63;100.00;-18581.56;4985664;28;20564;-78
2023/08/22 00:37:54;;;;;;;12.13;9.30;;;;;;;20.68;100.00;-18582.94;4989411;28;20049;-79
2023/08/22 00:40:19;;;;;;;13.00;9.20;;;;;;;20.71;100.00;-18583.75;4992377;28;20050;-78
2023/08/22 00:42:44;;;;;;;10.73;8.73;;;;;;;20.68;100.00;-18583.06;4986389;28;20043;-79
2023/08/22 00:45:10;;;;;;;10.63;9.43;;;;;;;20.71;100.00;-18583.75;4986679;28;20054;-79
2023/08/22 00:47:35;;;;;;;13.35;9.57;;;;;;;20.80;100.00;-18586.19;4984571;28;20120;-78
2023/08/22 00:50:02;;;;;;;10.27;8.40;;;;;;;20.83;100.00;-18587.00;4987604;28;20052;-79
2023/08/22 00:52:28;;;;;;;10.60;8.30;;;;;;;20.82;100.00;-18586.59;4985622;28;20073;-78
2023/08/22 00:54:53;;;;;;;13.20;9.43;;;;;;;20.79;100.00;-18585.91;4987161;28;20038;-79
2023/08/22 00:57:20;;;;;;;10.80;8.75;;;;;;;20.77;100.00;-18585.38;4988173;28;20047;-78
2023/08/22 00:59:45;;;;;;;12.05;8.52;;;;;;;20.81;100.00;-18586.47;5002900;28;20134;-80
2023/08/22 01:02:11;;;;;;;13.93;9.18;;;;;;;20.81;100.00;-18586.31;4989548;28;20098;-78
2023/08/22 01:04:37;;;;;;;12.45;8.40;;;;;;;20.71;100.00;-18583.88;4986524;28;20054;-78
2023/08/22 01:07:40;;;;;;;10.57;8.95;;;;;;;20.64;100.00;-18581.84;4989574;28;20454;-78
2023/08/22 01:10:19;;;;;;;11.77;8.40;;;;;;;20.59;100.00;-18580.47;4947747;28;20051;-78
2023/08/22 01:13:02;;;;;;;12.77;8.53;;;;;;;20.51;100.00;-18578.44;4983395;28;20171;-79
2023/08/22 01:15:30;;;;;;;12.70;9.30;;;;;;;20.50;100.00;-18578.16;4987411;28;20308;-78
2023/08/22 01:18:01;;;;;;;11.35;8.52;;;;;;;20.47;100.00;-18577.47;4986612;28;20045;-79
2023/08/22 01:20:27;;;;;;;13.65;10.02;;;;;;;20.46;100.00;-18577.22;4984514;28;20153;-78
2023/08/22 01:22:53;;;;;;;15.15;10.45;;;;;;;20.62;100.00;-18581.28;4990786;28;20088;-78
2023/08/22 01:25:19;;;;;;;13.52;10.27;;;;;;;20.61;100.00;-18581.03;4994046;28;20475;-79
2023/08/22 01:28:06;;;;;;;11.85;10.00;;;;;;;20.66;100.00;-18582.53;5001825;28;20680;-78
2023/08/22 01:30:41;;;;;;;14.68;10.75;;;;;;;20.59;100.00;-18580.47;5004484;28;20047;-79
2023/08/22 01:33:14;;;;;;;13.93;9.98;;;;;;;20.56;100.00;-18579.66;4991548;28;20062;-79
2023/08/22 01:35:45;;;;;;;14.75;10.55;;;;;;;20.48;100.00;-18577.63;4988383;28;20034;-79
2023/08/22 01:38:12;;;;;;;13.68;10.55;;;;;;;20.38;100.00;-18575.03;4998050;28;20454;-78
2023/08/22 01:40:38;;;;;;;12.70;10.18;;;;;;;20.45;100.00;-18576.94;5003599;28;20383;-79
2023/08/22 01:43:04;;;;;;;14.48;10.80;;;;;;;20.41;100.00;-18575.84;5001587;28;20049;-79
2023/08/22 01:45:29;;;;;;;12.15;10.27;;;;;;;20.39;100.00;-18575.16;5003562;28;20049;-78
2023/08/22 01:47:54;;;;;;;14.52;10.18;;;;;;;20.46;100.00;-18577.22;4994575;28;20082;-78
2023/08/22 01:50:20;;;;;;;12.60;10.20;;;;;;;20.51;100.00;-18578.44;4999591;28;20045;-79
2023/08/22 01:52:45;;;;;;;16.15;12.05;;;;;;;20.61;100.00;-18581.16;5003364;28;20041;-79
2023/08/22 01:55:12;;;;;;;16.48;12.77;;;;;;;20.65;100.00;-18582.09;5016002;22;20050;-76
2023/08/22 01:57:37;;;;;;;17.40;14.57;;;;;;;20.72;100.00;-18584.16;5007506;28;20052;-76
2023/08/22 02:00:03;;;;;;;19.88;15.65;;;;;;;20.80;100.00;-18586.19;5009773;28;20038;-76
2023/08/22 02:02:29;;;;;;;20.05;15.80;;;;;;;20.79;100.00;-18585.91;5009031;28;20127;-76
2023/08/22 02:04:54;;;;;;;18.00;14.93;;;;;;;20.80;100.00;-18586.06;5005837;28;20408;-76
2023/08/22 02:07:20;;;;;;;18.30;14.02;;;;;;;21.15;100.00;-18595.56;5007645;28;20130;-76
2023/08/22 02:09:46;;;;;;;17.42;13.20;;;;;;;20.94;100.00;-18590.00;5008423;28;20458;-76
2023/08/22 02:12:11;;;;;;;15.27;11.48;;;;;;;20.90;100.00;-18588.78;5009894;28;20065;-76
2023/08/22 02:14:36;;;;;;;14.00;11.50;;;;;;;20.84;100.00;-18587.28;5006787;28;20121;-76
2023/08/22 02:17:02;;;;;;;16.23;10.98;;;;;;;20.86;100.00;-18587.81;5004227;28;20088;-75
2023/08/22 02:19:27;;;;;;;16.75;12.38;;;;;;;20.81;100.00;-18586.31;5008351;28;21579;-76
2023/08/22 02:21:53;;;;;;;15.73;11.98;;;;;;;20.82;100.00;-18586.72;5005565;28;20121;-76
2023/08/22 02:24:19;;;;;;;14.07;11.57;;;;;;;20.85;100.00;-18587.56;5008896;28;20452;-76
2023/08/22 02:26:45;;;;;;;15.35;12.55;;;;;;;20.90;100.00;-18588.78;5023320;28;20026;-76
2023/08/22 02:29:11;;;;;;;16.67;12.38;;;;;;;20.59;100.00;-18580.47;5009107;28;20038;-76
2023/08/22 02:31:36;;;;;;;17.83;12.77;;;;;;;20.55;100.00;-18579.53;5006121;28;20105;-76
2023/08/22 02:34:01;;;;;;;17.90;11.65;;;;;;;20.58;100.00;-18580.34;5008687;28;20118;-76
2023/08/22 02:36:27;;;;;;;15.13;12.07;;;;;;;20.67;100.00;-18582.78;5023563;28;20046;-75
2023/08/22 02:38:52;;;;;;;17.05;12.85;;;;;;;20.70;100.00;-18583.47;5010826;28;20068;-75
2023/08/22 02:41:18;;;;;;;15.00;11.73;;;;;;;20.71;100.00;-18583.88;5008663;28;20038;-76
2023/08/22 02:43:43;;;;;;;18.77;13.13;;;;;;;20.41;100.00;-18575.84;5007740;28;20061;-76
2023/08/22 02:46:08;;;;;;;16.88;13.45;;;;;;;20.44;100.00;-18576.66;5008147;28;20413;-76
2023/08/22 02:48:34;;;;;;;20.40;13.30;;;;;;;20.39;100.00;-18575.31;5007980;28;20404;-76
2023/08/22 02:50:59;;;;;;;17.42;13.30;;;;;;;20.47;100.00;-18577.47;5005879;28;20037;-76
2023/08/22 02:53:25;;;;;;;16.65;12.88;;;;;;;20.40;100.00;-18575.56;5004565;28;20048;-75
2023/08/22 02:55:50;;;;;;;19.15;14.68;;;;;;;20.43;100.00;-18576.25;5007618;28;20457;-74
2023/08/22 02:58:15;;;;;;;17.52;14.38;;;;;;;20.57;100.00;-18580.06;5008155;28;20069;-75
2023/08/22 03:00:44;;;;;;;18.15;14.00;;;;;;;20.62;100.00;-18581.28;5007749;28;20038;-76
2023/08/22 03:03:09;;;;;;;19.30;14.02;;;;;;;20.59;100.00;-18580.47;5007274;28;20109;-76
2023/08/22 03:05:35;;;;;;;17.67;13.18;;;;;;;20.59;100.00;-18580.47;5003204;28;20580;-75
2023/08/22 03:08:00;;;;;;;16.08;13.50;;;;;;;20.45;100.00;-18576.94;5005089;28;20596;-75
2023/08/22 03:10:26;;;;;;;16.50;13.68;;;;;;;20.37;100.00;-18574.63;5004035;28;20157;-76
2023/08/22 03:12:52;;;;;;;17.13;13.25;;;;;;;20.35;100.00;-18574.22;5004405;28;20044;-76
2023/08/22 03:15:17;;;;;;;15.85;12.68;;;;;;;20.24;100.00;-18571.22;5002005;28;20686;-77
2023/08/22 03:17:42;;;;;;;18.58;13.07;;;;;;;20.29;100.00;-18572.59;5001461;28;20046;-76
2023/08/22 03:20:09;;;;;;;17.42;13.85;;;;;;;20.26;100.00;-18571.75;5001809;28;20121;-76
2023/08/22 03:22:34;;;;;;;16.85;13.88;;;;;;;20.41;100.00;-18575.84;5000569;28;20042;-76
2023/08/22 03:24:59;;;;;;;20.05;13.98;;;;;;;20.36;100.00;-18574.47;5004207;28;20149;-76
2023/08/22 03:27:25;;;;;;;16.92;12.63;;;;;;;20.45;100.00;-18576.94;5004169;28;20572;-75
2023/08/22 03:29:50;;;;;;;17.20;13.88;;;;;;;20.57;100.00;-18580.06;5002893;28;20049;-76
2023/08/22 03:32:15;;;;;;;17.38;12.85;;;;;;;20.52;100.00;-18578.72;5003259;28;20038;-76
2023/08/22 03:34:41;;;;;;;15.57;12.85;;;;;;;20.51;100.00;-18578.56;5002111;28;20045;-76
2023/08/22 03:37:06;;;;;;;18.23;13.68;;;;;;;20.40;100.00;-18575.56;5004686;28;20101;-75
2023/08/22 03:39:31;;;;;;;16.00;12.68;;;;;;;20.53;100.00;-18578.84;5009476;28;20586;-76
2023/08/22 03:41:57;;;;;;;17.60;12.57;;;;;;;20.46;100.00;-18577.06;5004908;28;20153;-76
2023/08/22 03:44:22;;;;;;;16.38;12.00;;;;;;;20.34;100.00;-18573.81;5003128;28;20057;-75
2023/08/22 03:46:47;;;;;;;17.40;12.13;;;;;;;20.34;100.00;-18573.94;5002953;28;20042;-76
2023/08/22 03:49:15;;;;;;;17.50;12.05;;;;;;;20.30;100.00;-18572.84;5005000;28;20042;-75
2023/08/22 03:51:41;;;;;;;15.52;11.38;;;;;;;20.43;100.00;-18576.25;4999308;28;20041;-76
2023/08/22 03:54:06;;;;;;;18.35;11.55;;;;;;;20.40;100.00;-18575.56;5003121;28;20038;-75
2023/08/22 03:56:31;;;;;;;14.52;11.52;;;;;;;20.28;100.00;-18572.31;5002870;28;20052;-76
2023/08/22 03:58:58;;;;;;;15.88;12.23;;;;;;;20.37;100.00;-18574.63;5004233;28;20087;-75
2023/08/22 04:01:23;;;;;;;17.90;12.88;;;;;;;20.36;100.00;-18574.34;5001266;28;20061;-76
2023/08/22 04:03:48;;;;;;;19.77;14.15;;;;;;;20.66;100.00;-18582.53;5003661;28;20929;-75
2023/08/22 04:06:14;;;;;;;19.63;14.45;;;;;;;20.46;100.00;-18577.22;5000344;28;20041;-76
2023/08/22 04:08:39;;;;;;;19.48;13.90;;;;;;;20.50;100.00;-18578.28;5001576;28;20433;-75
2023/08/22 04:11:04;;;;;;;18.55;13.57;;;;;;;20.52;100.00;-18578.72;5002850;28;20064;-76
2023/08/22 04:13:30;;;;;;;19.27;13.02;;;;;;;20.48;100.00;-18577.75;5004336;28;20064;-76
2023/08/22 04:15:55;;;;;;;17.15;13.38;;;;;;;20.39;100.00;-18575.16;5001697;28;20050;-76
2023/08/22 04:18:20;;;;;;;17.90;12.93;;;;;;;20.24;100.00;-18571.22;5003555;28;20125;-76
2023/08/22 04:20:46;;;;;;;17.63;13.25;;;;;;;20.22;100.00;-18570.69;4999989;28;20045;-76
2023/08/22 04:23:11;;;;;;;17.13;13.02;;;;;;;20.27;100.00;-18572.03;5000793;28;20048;-76
2023/08/22 04:25:37;;;;;;;16.58;13.70;;;;;;;20.22;100.00;-18570.69;4995854;28;20045;-76
2023/08/22 04:28:03;;;;;;;17.40;12.57;;;;;;;20.03;100.00;-18565.78;4998818;28;20042;-75
2023/08/22 04:30:29;;;;;;;17.30;13.02;;;;;;;20.03;100.00;-18565.78;5001505;28;20073;-75
2023/08/22 04:32:55;;;;;;;16.50;12.32;;;;;;;19.96;100.00;-18563.88;4999985;28;20465;-75
2023/08/22 04:35:21;;;;;;;19.73;13.13;;;;;;;19.91;100.00;-18562.50;5001111;28;20042;-75
2023/08/22 04:37:46;;;;;;;19.42;13.52;;;;;;;19.97;100.00;-18564.16;5002690;28;20065;-75
2023/08/22 04:40:12;;;;;;;16.42;13.00;;;;;;;20.04;100.00;-18566.03;5003756;28;20061;-75
2023/08/22 04:42:37;;;;;;;19.08;13.77;;;;;;;20.11;100.00;-18567.69;5000081;28;20077;-75
2023/08/22 04:45:03;;;;;;;20.55;14.50;;;;;;;20.17;100.00;-18569.44;5003368;28;20485;-75
2023/08/22 04:47:28;;;;;;;18.08;14.27;;;;;;;20.14;100.00;-18568.63;5003016;28;20038;-75
2023/08/22 04:49:53;;;;;;;20.05;14.35;;;;;;;20.01;100.00;-18565.22;5003703;28;20056;-75
2023/08/22 04:52:19;;;;;;;24.67;14.57;;;;;;;19.90;100.00;-18562.22;5002792;28;20050;-75
2023/08/22 04:54:44;;;;;;;18.10;13.98;;;;;;;19.87;100.00;-18561.41;5002156;28;20057;-76
2023/08/22 04:57:09;;;;;;;19.15;15.02;;;;;;;19.74;100.00;-18557.88;5003762;28;20711;-75
2023/08/22 04:59:35;;;;;;;19.30;14.48;;;;;;;19.64;100.00;-18555.28;5001736;28;20045;-75
2023/08/22 05:02:00;;;;;;;20.70;15.73;;;;;;;19.79;100.00;-18559.38;5004674;28;20560;-75
2023/08/22 05:04:26;;;;;;;21.63;15.77;;;;;;;19.81;100.00;-18559.78;5001454;28;20041;-75
2023/08/22 05:06:51;;;;;;;19.60;15.75;;;;;;;19.86;100.00;-18561.00;5002798;28;20104;-75
2023/08/22 05:09:16;;;;;;;24.77;15.95;;;;;;;19.78;100.00;-18559.09;5004621;28;20134;-75
2023/08/22 05:11:42;;;;;;;18.88;15.15;;;;;;;19.78;100.00;-18558.97;5002380;28;20038;-75
2023/08/22 05:14:08;;;;;;;19.23;15.00;;;;;;;19.81;100.00;-18559.91;5002434;28;20129;-75
2023/08/22 05:16:34;;;;;;;20.27;14.85;;;;;;;19.89;100.00;-18561.97;5006050;28;20037;-75
2023/08/22 05:18:59;;;;;;;20.80;16.00;;;;;;;19.82;100.00;-18560.06;5001608;28;20042;-75
2023/08/22 05:21:28;;;;;;;18.30;14.88;;;;;;;19.84;100.00;-18560.75;5006714;28;20049;-76
2023/08/22 05:23:53;;;;;;;21.40;15.73;;;;;;;19.82;100.00;-18560.19;5008776;28;20042;-75
2023/08/22 05:26:19;;;;;;;20.63;15.23;;;;;;;19.90;100.00;-18562.22;5006871;28;20428;-75
2023/08/22 05:28:44;;;;;;;21.83;15.75;;;;;;;20.02;100.00;-18565.38;5005833;28;20049;-77
2023/08/22 05:31:21;;;;;;;22.02;15.05;;;;;;;20.06;100.00;-18566.47;5004844;28;20041;-76
2023/08/22 05:33:46;;;;;;;17.83;14.65;;;;;;;20.19;100.00;-18569.84;5008083;28;20436;-75
2023/08/22 05:36:12;;;;;;;21.50;15.43;;;;;;;20.17;100.00;-18569.44;5005673;28;20042;-76
2023/08/22 05:38:37;;;;;;;21.30;14.43;;;;;;;20.19;100.00;-18570.00;5003779;28;20181;-78
2023/08/22 05:41:02;;;;;;;20.25;15.45;;;;;;;20.18;100.00;-18569.59;5005604;28;20050;-76
2023/08/22 05:43:28;;;;;;;22.48;16.35;;;;;;;20.14;100.00;-18568.50;5004012;28;20042;-76
2023/08/22 05:45:53;;;;;;;18.92;15.18;;;;;;;20.27;100.00;-18572.16;5004708;28;20046;-76
2023/08/22 05:48:18;;;;;;;23.70;16.90;;;;;;;20.43;100.00;-18576.25;5007334;28;20475;-76
2023/08/22 05:50:44;;;;;;;23.15;16.63;;;;;;;20.48;100.00;-18577.63;4992218;28;20038;-77
2023/08/22 05:53:09;;;;;;;20.02;16.05;;;;;;;20.60;100.00;-18580.75;5002111;28;20038;-76
2023/08/22 05:55:34;;;;;;;22.50;17.35;;;;;;;20.80;100.00;-18586.19;5003934;28;20042;-76
2023/08/22 05:58:00;;;;;;;24.10;16.65;;;;;;;20.88;100.00;-18588.22;5010196;28;20673;-76
2023/08/22 06:00:25;;;;;;;21.48;16.45;;;;;;;20.73;100.00;-18584.41;5007123;28;20038;-76
2023/08/22 06:02:50;;;;;;;26.10;17.92;;;;;;;21.14;100.00;-18595.16;5005690;28;20042;-75
2023/08/22 06:05:16;;;;;;;24.00;18.35;;;;;;;21.85;100.00;-18614.06;5005403;28;20050;-76
2023/08/22 06:07:41;;;;;;;25.48;17.52;;;;;;;21.95;100.00;-18616.78;5005701;28;20038;-75
2023/08/22 06:10:07;;;;;;;24.10;16.52;;;;;;;22.03;100.00;-18618.81;5006568;28;20108;-77
2023/08/22 06:12:32;;;;;;;25.15;17.58;;;;;;;22.09;100.00;-18620.59;5005776;28;20049;-76
2023/08/22 06:14:57;;;;;;;23.15;17.55;;;;;;;22.10;100.00;-18620.72;5006936;28;20520;-75
2023/08/22 06:17:23;;;;;;;24.40;16.88;;;;;;;22.46;100.00;-18630.38;5006981;28;20069;-75
2023/08/22 06:19:48;;;;;;;23.25;17.27;;;;;;;21.69;100.00;-18609.84;5005886;28;20044;-75
2023/08/22 06:22:14;;;;;;;22.52;17.00;;;;;;;21.92;100.00;-18615.97;5007449;28;20132;-75
2023/08/22 06:24:39;;;;;;;21.27;16.80;;;;;;;22.01;100.00;-18618.28;5007769;28;20034;-75
2023/08/22 06:27:05;;;;;;;23.67;17.73;;;;;;;22.12;100.00;-18621.13;5011701;28;20046;-75
2023/08/22 06:29:34;;;;;;;20.02;16.05;;;;;;;22.38;100.00;-18628.06;5005710;28;20042;-75
2023/08/22 06:32:02;;;;;;;20.92;15.82;;;;;;;22.34;100.00;-18626.97;5009221;28;20449;-75
2023/08/22 06:34:30;;;;;;;22.92;15.68;;;;;;;22.45;100.00;-18629.97;5007090;28;20034;-76
2023/08/22 06:36:56;;;;;;;21.57;15.50;;;;;;;22.47;100.00;-18630.50;5005972;28;20073;-75
2023/08/22 06:39:24;;;;;;;20.80;15.45;;;;;;;22.60;100.00;-18633.91;5007348;28;20779;-77
2023/08/22 06:41:50;;;;;;;22.92;16.17;;;;;;;22.59;100.00;-18633.75;5020672;28;20049;-76
2023/08/22 06:44:15;;;;;;;22.67;16.05;;;;;;;22.84;100.00;-18640.28;5006536;28;20038;-75
2023/08/22 06:46:41;;;;;;;19.25;14.88;;;;;;;23.02;100.00;-18645.03;5004182;28;20189;-75
2023/08/22 06:49:06;;;;;;;22.33;14.65;;;;;;;23.08;100.00;-18646.78;5006719;28;20049;-75
2023/08/22 06:51:33;;;;;;;19.40;14.32;;;;;;;22.96;100.00;-18643.53;5004983;28;20529;-76
2023/08/22 06:53:58;;;;;;;24.48;15.63;;;;;;;23.25;100.00;-18651.28;5006188;28;20050;-75
2023/08/22 06:56:24;;;;;;;22.73;13.25;;;;;;;23.16;100.00;-18648.81;5004926;28;20038;-76
2023/08/22 06:58:50;;;;;;;18.60;13.45;;;;;;;23.25;100.00;-18651.13;5002545;28;20521;-75
2023/08/22 07:01:15;;;;;;;22.25;13.98;;;;;;;23.22;100.00;-18650.31;5006629;28;20052;-75
2023/08/22 07:03:42;;;;;;;19.75;13.15;;;;;;;23.31;100.00;-18652.75;5005095;28;20493;-75
2023/08/22 07:06:07;;;;;;;15.35;12.52;;;;;;;23.16;100.00;-18648.97;5003169;28;20441;-75
2023/08/22 07:08:33;;;;;;;18.85;12.25;;;;;;;23.35;100.00;-18653.84;5005903;28;20068;-75
2023/08/22 07:11:03;;;;;;;17.42;10.35;;;;;;;23.32;100.00;-18653.16;5001667;28;20046;-76
2023/08/22 07:13:29;;;;;;;12.93;8.90;;;;;;;23.48;100.00;-18657.38;5003823;28;20421;-76
2023/08/22 07:15:54;;;;;;;15.82;9.07;;;;;;;23.77;100.00;-18664.97;5002855;28;20045;-75
2023/08/22 07:18:20;;;;;;;11.52;6.68;;;;;;;23.69;100.00;-18662.94;5004506;28;20050;-76
2023/08/22 07:20:46;;;;;;;10.73;7.60;;;;;;;23.91;100.00;-18668.78;5004534;28;20041;-76
2023/08/22 07:23:12;;;;;;;12.85;6.50;;;;;;;24.10;100.00;-18673.78;5006088;28;20125;-78
2023/08/22 07:25:37;;;;;;;9.57;6.47;;;;;;;24.25;100.00;-18677.84;5002481;28;20141;-78
2023/08/22 07:28:03;;;;;;;8.05;5.10;;;;;;;24.34;100.00;-18680.16;5004674;28;20100;-78
2023/08/22 07:30:29;;;;;;;6.57;4.68;;;;;;;24.54;100.00;-18685.44;5003269;28;20030;-78
2023/08/22 07:32:54;;;;;;;8.45;4.55;;;;;;;24.72;100.00;-18690.31;5005550;28;20041;-77
2023/08/22 07:35:20;;;;;;;7.60;4.82;;;;;;;24.74;100.00;-18690.72;4998996;28;20093;-77
2023/08/22 07:37:45;;;;;;;8.52;5.00;;;;;;;24.68;100.00;-18689.09;5003744;28;20038;-78
2023/08/22 07:40:11;;;;;;;9.75;5.13;;;;;;;24.71;100.00;-18690.03;5005378;28;20397;-78
2023/08/22 07:42:36;;;;;;;7.68;5.35;;;;;;;24.69;100.00;-18689.38;5002154;28;20049;-78
2023/08/22 07:45:03;;;;;;;7.45;5.03;;;;;;;24.72;100.00;-18690.19;5003928;28;20049;-78
2023/08/22 07:47:29;;;;;;;8.18;5.22;;;;;;;24.76;100.00;-18691.25;5003613;28;20042;-76
2023/08/22 07:49:55;;;;;;;9.23;5.30;;;;;;;24.82;100.00;-18692.88;5002288;28;20108;-76
2023/08/22 07:52:20;;;;;;;8.45;5.50;;;;;;;24.95;100.00;-18696.28;5005178;28;20140;-76
2023/08/22 07:54:45;;;;;;;8.43;5.18;;;;;;;24.82;100.00;-18692.88;5002804;28;20616;-78
2023/08/22 07:57:11;;;;;;;8.70;4.95;;;;;;;25.01;100.00;-18697.75;5018063;23;20505;-76
2023/08/22 07:59:37;;;;;;;11.10;5.30;;;;;;;24.98;100.00;-18697.22;5004786;28;20100;-77
2023/08/22 08:02:04;;;;;;;8.27;5.28;;;;;;;24.77;100.00;-18691.66;5006558;28;20050;-76
2023/08/22 08:04:30;;;;;;;11.60;6.40;;;;;;;24.70;100.00;-18689.78;5005490;28;20065;-77
2023/08/22 08:06:57;;;;;;;10.85;6.25;;;;;;;24.63;100.00;-18687.75;4998249;28;20050;-77
2023/08/22 08:09:22;;;;;;;11.90;6.40;;;;;;;24.60;100.00;-18687.06;5006385;28;20145;-77
2023/08/22 08:11:47;;;;;;;10.50;6.90;;;;;;;24.77;100.00;-18691.66;5004733;28;20046;-77
2023/08/22 08:14:13;;;;;;;12.52;6.60;;;;;;;24.99;100.00;-18697.50;5007184;28;20038;-77
2023/08/22 08:16:38;;;;;;;13.02;7.15;;;;;;;24.99;100.00;-18697.50;5004524;28;20052;-76
2023/08/22 08:19:04;;;;;;;11.55;7.53;;;;;;;25.04;100.00;-18698.56;5005615;28;20049;-77
2023/08/22 08:21:29;;;;;;;12.35;7.00;;;;;;;25.09;100.00;-18699.94;5005668;28;20049;-76
2023/08/22 08:23:55;;;;;;;10.13;5.93;;;;;;;24.86;100.00;-18693.97;5006729;28;20053;-77
2023/08/22 08:26:20;;;;;;;11.40;6.68;;;;;;;24.95;98.82;-18696.41;5006961;28;20053;-76
2023/08/22 08:28:46;;;;;;;9.55;5.82;;;;;;;25.01;95.20;-18697.75;5004703;28;20054;-77
2023/08/22 08:31:12;;;;;;;9.98;5.97;;;;;;;25.08;98.48;-18699.66;5007314;28;20034;-77
2023/08/22 08:33:37;;;;;;;8.93;5.78;;;;;;;25.39;95.47;-18708.06;5002992;28;20042;-76
2023/08/22 08:36:04;;;;;;;8.73;5.88;;;;;;;25.67;93.87;-18715.34;5006303;28;20041;-77
2023/08/22 08:38:29;;;;;;;11.65;6.13;;;;;;;25.57;92.93;-18712.66;5006471;28;20034;-76
2023/08/22 08:40:59;;;;;;;8.15;4.20;;;;;;;25.51;90.38;-18711.16;5006453;28;20050;-77
2023/08/22 08:43:25;;;;;;;9.50;4.20;;;;;;;25.42;90.16;-18708.88;5006813;28;20041;-77
2023/08/22 08:45:51;;;;;;;8.55;3.95;;;;;;;25.73;88.02;-18716.97;5004452;28;20164;-77
2023/08/22 08:48:17;;;;;;;5.82;4.00;;;;;;;25.85;85.35;-18720.22;5007220;28;20037;-77
2023/08/22 08:50:43;;;;;;;5.53;3.28;;;;;;;26.01;77.22;-18724.28;5008305;28;20101;-77
2023/08/22 08:53:09;;;;;;;7.55;3.35;;;;;;;26.15;79.09;-18727.94;5011784;28;20129;-77
2023/08/22 08:55:35;;;;;;;6.45;3.50;;;;;;;26.13;77.75;-18727.41;5007670;28;20044;-77
2023/08/22 08:58:00;;;;;;;8.20;3.20;;;;;;;26.35;79.13;-18733.34;5010202;28;20037;-76
2023/08/22 09:00:26;;;;;;;6.35;3.20;;;;;;;26.36;75.47;-18733.47;5010379;28;20034;-76
2023/08/22 09:02:53;;;;;;;7.57;3.50;;;;;;;26.27;81.84;-18731.31;5007779;28;20116;-77
2023/08/22 09:05:21;;;;;;;6.57;2.83;;;;;;;26.04;75.57;-18725.25;5005503;28;20052;-77
2023/08/22 09:07:46;;;;;;;7.13;3.00;;;;;;;26.31;72.58;-18732.25;5009543;28;20050;-77
2023/08/22 09:10:12;;;;;;;6.57;2.75;;;;;;;26.55;72.21;-18738.63;5010216;28;20448;-77
2023/08/22 09:12:37;;;;;;;5.78;3.42;;;;;;;26.39;72.66;-18734.28;5009439;28;20045;-77
2023/08/22 09:15:08;;;;;;;5.75;3.15;;;;;;;26.90;71.60;-18747.81;5008729;28;20049;-77
2023/08/22 09:17:34;;;;;;;6.57;3.20;;;;;;;26.53;75.68;-18738.09;5007817;28;20080;-77
2023/08/22 09:20:09;;;;;;;7.13;3.63;;;;;;;26.77;71.22;-18744.56;5010975;28;20120;-77
2023/08/22 09:22:34;;;;;;;7.28;3.30;;;;;;;25.90;76.81;-18721.31;5009469;28;20037;-77
2023/08/22 09:25:00;;;;;;;9.95;4.10;;;;;;;25.90;77.88;-18721.44;5011186;28;20771;-77
2023/08/22 09:27:27;;;;;;;9.85;4.00;;;;;;;25.96;79.17;-18722.94;5009373;28;20046;-77
2023/08/22 09:29:57;;;;;;;9.35;3.65;;;;;;;26.34;77.75;-18733.06;5008923;28;20390;-77
2023/08/22 09:32:22;;;;;;;8.60;4.25;;;;;;;26.38;80.53;-18734.03;5010229;28;20556;-77
2023/08/22 09:34:55;;;;;;;8.57;4.90;;;;;;;26.42;78.75;-18735.25;5007503;28;20165;-77
2023/08/22 09:37:30;;;;;;;15.73;5.63;;;;;;;26.82;76.84;-18745.66;5010955;28;20065;-76
2023/08/22 09:39:56;;;;;;;10.93;4.35;;;;;;;26.26;76.69;-18731.03;5009632;28;20045;-77
2023/08/22 09:42:31;;;;;;;6.47;2.92;;;;;;;26.40;78.87;-18734.56;5009632;28;20052;-77
2023/08/22 09:44:57;;;;;;;5.57;2.80;;;;;;;26.50;77.72;-18737.41;5008590;28;20575;-76
2023/08/22 09:47:30;;;;;;;6.85;2.30;;;;;;;27.06;73.30;-18752.13;5009174;28;20084;-77
2023/08/22 09:49:58;;;;;;;6.78;2.50;;;;;;;27.13;73.47;-18753.88;5008770;28;20045;-77
2023/08/22 09:52:25;;;;;;;7.10;2.95;;;;;;;27.00;74.26;-18750.66;5010729;28;20475;-77
2023/08/22 09:54:51;;;;;;;5.25;2.72;;;;;;;26.87;71.69;-18747.13;5008144;28;20041;-77
2023/08/22 09:57:17;;;;;;;5.80;2.88;;;;;;;26.96;72.26;-18749.56;5013335;28;20059;-77
2023/08/22 09:59:45;;;;;;;6.40;2.55;;;;;;;27.08;71.94;-18752.69;5007610;28;20124;-77
2023/08/22 10:02:11;;;;;;;6.90;2.55;;;;;;;27.07;75.97;-18752.41;5009343;28;20044;-77
2023/08/22 10:04:36;;;;;;;6.10;3.53;;;;;;;27.01;72.47;-18750.78;5010115;28;20393;-77
2023/08/22 10:07:02;;;;;;;6.97;3.15;;;;;;;26.93;73.62;-18748.63;5008730;28;20045;-77
2023/08/22 10:09:27;;;;;;;6.18;3.30;;;;;;;27.06;74.18;-18752.00;5007845;28;20069;-76
2023/08/22 10:12:02;;;;;;;6.63;3.40;;;;;;;26.87;75.27;-18747.00;5006329;28;20041;-76
2023/08/22 10:14:40;;;;;;;7.07;3.90;;;;;;;26.90;75.28;-18747.81;5006095;28;20038;-76
2023/08/22 10:17:10;;;;;;;7.65;4.15;;;;;;;27.19;74.63;-18755.50;5022131;28;20046;-77
2023/08/22 10:19:36;;;;;;;8.30;3.70;;;;;;;27.16;74.30;-18754.69;5008718;28;20096;-77
2023/08/22 10:22:12;;;;;;;8.50;4.15;;;;;;;27.18;73.19;-18755.38;5008687;28;20042;-78
2023/08/22 10:24:38;;;;;;;5.68;3.60;;;;;;;27.53;70.58;-18764.56;5014800;28;20038;-76
2023/08/22 10:27:05;;;;;;;7.85;4.40;;;;;;;27.44;66.43;-18762.13;5008128;28;20456;-77
2023/08/22 10:29:36;;;;;;;7.63;3.90;;;;;;;27.52;73.52;-18764.16;5006264;28;20065;-77
2023/08/22 10:32:01;;;;;;;6.65;3.63;;;;;;;27.60;72.50;-18766.31;5009544;28;20061;-78
2023/08/22 10:34:47;;;;;;;6.10;3.78;;;;;;;27.34;70.72;-18759.56;5008535;28;20046;-78
2023/08/22 10:37:16;;;;;;;9.32;4.10;;;;;;;27.39;74.16;-18760.78;4988109;28;20037;-77
2023/08/22 10:39:43;;;;;;;8.63;5.07;;;;;;;27.37;72.18;-18760.25;5008143;28;20046;-77
2023/08/22 10:42:25;;;;;;;10.10;4.43;;;;;;;27.49;73.86;-18763.34;5004767;28;20065;-77
2023/08/22 10:44:52;;;;;;;10.13;5.65;;;;;;;27.37;72.64;-18760.25;5005225;28;20052;-77
2023/08/22 10:47:23;;;;;;;8.45;4.43;;;;;;;27.62;73.29;-18767.00;5004755;28;20578;-77
2023/08/22 10:49:52;;;;;;;8.02;5.18;;;;;;;27.86;70.07;-18773.19;5006662;28;20031;-77
2023/08/22 10:52:24;;;;;;;10.65;5.28;;;;;;;27.66;72.53;-18767.94;5022967;28;20038;-77
2023/08/22 10:55:08;;;;;;;8.32;5.25;;;;;;;27.96;71.33;-18775.91;5005233;28;20505;-78
2023/08/22 10:57:41;;;;;;;7.80;5.18;;;;;;;27.78;71.87;-18771.03;5007325;28;20042;-77
2023/08/22 11:00:24;;;;;;;10.50;6.57;;;;;;;27.94;68.45;-18775.22;5007566;28;20121;-77
2023/08/22 11:02:51;;;;;;;9.80;6.10;;;;;;;27.88;68.89;-18773.88;5006551;28;20042;-78
2023/08/22 11:05:17;;;;;;;11.48;5.82;;;;;;;28.29;72.92;-18784.66;5008679;28;20042;-77
2023/08/22 11:07:48;;;;;;;8.15;5.60;;;;;;;28.27;66.29;-18784.00;5005625;28;20044;-78